Nearby METAR Reports

Meteorological Terminal Air Report (METAR)

K3I2 - Pt Pleasant, West Virginia, USA
Distance from station: S 11mi, 18km
Updated: Sat, 24-Feb-2018 12:35am EST
Mist, Mostly cloudy
Mist, Mostly cloudy
 Wind from calm
Wind: Calm
Temperature: 55°F , 13°C
Dew Point: 55°F , 13°C
Humidity: 100%
Barometer: 30.18 inHg , 1022 hPa
Summary: Mist
Clouds: Mostly cloudy
Visibility: 1 mile , 2 km
Cloud details: Mostly cloudy 5000 ft
2018/02/24 05:35 K3I2 240535Z AUTO 00000KT 1SM BR BKN050 13/13 A3018 RMK AO2 T01280126
KUNI - Athens, Ohio, USA
Distance from station: NW 13mi, 21km
Updated: Sat, 24-Feb-2018 12:35am EST
Overcast
Overcast
 Wind from calm
Wind: Calm
Temperature: 55°F , 13°C
Dew Point: 55°F , 13°C
Humidity: 100%
Barometer: 30.17 inHg , 1021.7 hPa
Clouds: Overcast
Visibility: 10 miles , 16 km
Cloud details: Partly cloudy 1900 ft
Overcast 2600 ft
2018/02/24 05:35 KUNI 240535Z AUTO 00000KT 10SM SCT019 OVC026 13/13 A3017 RMK AO2 T01280128
 
KPKB - Parkersburg, West Virginia, USA
Distance from station: ENE 40mi, 65km
Updated: Sat, 24-Feb-2018 12:38am EST
Mist, Overcast
Mist, Overcast
 Wind from WNW
Wind: WNW 3 mph , 6 km/h
Temperature: 55°F , 13°C
Dew Point: 55°F , 13°C
Humidity: 100%
Barometer: 30.20 inHg , 1022.7 hPa
Summary: Mist
Clouds: Overcast
Visibility: 1 3/4 miles , 2.8 km
Cloud details: Partly cloudy 1400 ft
Mostly cloudy 2600 ft
Overcast 3200 ft
2018/02/24 05:38 KPKB 240538Z AUTO 30003KT 1 3/4SM BR SCT014 BKN026 OVC032 13/13 A3020 RMK AO2 T01330128
KCRW - Charleston, West Virginia, USA
Distance from station: SSE 55mi, 88km
Updated: Fri, 23-Feb-2018 11:54pm EST
Mostly cloudy
Mostly cloudy
 Wind from calm
Wind: Calm
Temperature: 57°F , 14°C
Dew Point: 57°F , 14°C
Humidity: 100%
Barometer: 30.18 inHg , 1022 hPa
Clouds: Mostly cloudy
Visibility: 9 miles , 14 km
Cloud details: Few Clouds 0 ft
Partly cloudy 7000 ft
Partly cloudy 13000 ft
Mostly cloudy 19000 ft
2018/02/24 04:54 KCRW 240454Z 00000KT 9SM FEW000 SCT070 SCT130 BKN190 14/14 A3018 RMK AO2 SLP215 FG FEW000 T01440139 402440089
 
KHTS - Huntington, West Virginia, USA
Distance from station: SSW 55mi, 89km
Updated: Fri, 23-Feb-2018 11:51pm EST
Clear
Clear
 Wind from NE
Wind: NE 3 mph , 6 km/h
Temperature: 61°F , 16°C
Dew Point: 55°F , 13°C
Humidity: 83%
Barometer: 30.17 inHg , 1021.7 hPa
Clouds: Clear
Visibility: 10 miles , 16 km
2018/02/24 04:51 KHTS 240451Z 04003KT 10SM CLR 16/13 A3017 RMK AO2 SLP213 T01560133 402390083
KLHQ - Lancaster, Ohio, USA
Distance from station: NW 56mi, 91km
Updated: Sat, 24-Feb-2018 12:42am EST
Overcast
Overcast
 Wind from NW
Wind: NW 6 mph , 9 km/h
Temperature: 54°F , 12°C
Dew Point: 52°F , 11°C
Humidity: 94%
Barometer: 30.19 inHg , 1022.4 hPa
Clouds: Overcast
Visibility: 10 miles , 16 km
Cloud details: Partly cloudy 1200 ft
Mostly cloudy 1700 ft
Overcast 4500 ft
2018/02/24 05:42 KLHQ 240542Z AUTO 32005KT 10SM SCT012 BKN017 OVC045 12/11 A3019 RMK AO2 T01220111
 
KZZV - Zanesville, Ohio, USA
Distance from station: N 61mi, 99km
Updated: Sat, 24-Feb-2018 12:14am EST
Mostly cloudy
Mostly cloudy
 Wind from WNW
Wind: WNW 3 mph , 6 km/h
Temperature: 55°F , 13°C
Dew Point: 52°F , 11°C
Humidity: 88%
Barometer: 30.18 inHg , 1022 hPa
Clouds: Mostly cloudy
Visibility: 10 miles , 16 km
Cloud details: Mostly cloudy 2300 ft
2018/02/24 05:14 KZZV 240514Z AUTO 30003KT 10SM BKN023 13/11 A3018 RMK AO2 T01330106
KLCK - Rickenbacker Ang, Ohio, USA
Distance from station: NW 68mi, 110km
Updated: Sat, 24-Feb-2018 12:35am EST
Overcast
Overcast
 Wind from N
Wind: N 6 mph , 9 km/h
Temperature: 52°F , 11°C
Dew Point: 52°F , 11°C
Humidity: 100%
Barometer: 30.19 inHg , 1022.4 hPa
Clouds: Overcast
Visibility: 10 miles , 16 km
Cloud details: Overcast 1800 ft
2018/02/24 05:35 KLCK 240535Z AUTO 35005KT 10SM OVC018 11/11 A3019 RMK AO2 T01100105
 
KVTA - Newark, Ohio, USA
Distance from station: NNW 68mi, 110km
Updated: Sat, 24-Feb-2018 12:26am EST
Overcast
Overcast
 Wind from NNW
Wind: NNW 9 mph , 15 km/h
Temperature: 54°F , 12°C
Dew Point: 48°F , 9°C
Humidity: 82%
Barometer: 30.18 inHg , 1022 hPa
Clouds: Overcast
Visibility: 10 miles , 16 km
Cloud details: Partly cloudy 1200 ft
Overcast 2000 ft
2018/02/24 05:26 KVTA 240526Z AUTO 33008KT 10SM SCT012 OVC020 12/09 A3018 RMK AO2 T01170089